sensor_id;sensor_type;location;lat;lon;timestamp;P1;durP1;ratioP1;P2;durP2;ratioP2
42632;SDS011;28261;53.304;-6.284;2023-02-15T00:00:27;10.32;;;4.65;;
42632;SDS011;28261;53.304;-6.284;2023-02-15T00:02:30;8.02;;;4.30;;
42632;SDS011;28261;53.304;-6.284;2023-02-15T00:04:34;10.85;;;4.78;;
42632;SDS011;28261;53.304;-6.284;2023-02-15T00:06:49;8.45;;;4.78;;
42632;SDS011;28261;53.304;-6.284;2023-02-15T00:08:53;11.90;;;5.22;;
42632;SDS011;28261;53.304;-6.284;2023-02-15T00:11:05;10.02;;;4.82;;
42632;SDS011;28261;53.304;-6.284;2023-02-15T00:13:09;8.35;;;4.45;;
42632;SDS011;28261;53.304;-6.284;2023-02-15T00:15:13;11.55;;;5.60;;
42632;SDS011;28261;53.304;-6.284;2023-02-15T00:17:16;10.50;;;4.88;;
42632;SDS011;28261;53.304;-6.284;2023-02-15T00:19:20;10.55;;;5.55;;
42632;SDS011;28261;53.304;-6.284;2023-02-15T00:21:24;11.05;;;4.85;;
42632;SDS011;28261;53.304;-6.284;2023-02-15T00:23:28;9.77;;;5.40;;
42632;SDS011;28261;53.304;-6.284;2023-02-15T00:25:31;13.65;;;5.45;;
42632;SDS011;28261;53.304;-6.284;2023-02-15T00:27:36;9.50;;;4.80;;
42632;SDS011;28261;53.304;-6.284;2023-02-15T00:29:39;11.43;;;5.38;;
42632;SDS011;28261;53.304;-6.284;2023-02-15T00:31:42;13.32;;;5.28;;
42632;SDS011;28261;53.304;-6.284;2023-02-15T00:33:46;11.85;;;5.20;;
42632;SDS011;28261;53.304;-6.284;2023-02-15T00:35:55;9.90;;;3.67;;
42632;SDS011;28261;53.304;-6.284;2023-02-15T00:37:58;12.77;;;4.70;;
42632;SDS011;28261;53.304;-6.284;2023-02-15T00:40:04;11.57;;;5.03;;
42632;SDS011;28261;53.304;-6.284;2023-02-15T00:42:09;8.52;;;4.13;;
42632;SDS011;28261;53.304;-6.284;2023-02-15T00:44:14;10.90;;;5.07;;
42632;SDS011;28261;53.304;-6.284;2023-02-15T00:46:17;10.75;;;4.60;;
42632;SDS011;28261;53.304;-6.284;2023-02-15T00:48:21;9.38;;;4.95;;
42632;SDS011;28261;53.304;-6.284;2023-02-15T00:50:25;12.00;;;5.82;;
42632;SDS011;28261;53.304;-6.284;2023-02-15T00:52:28;10.73;;;5.75;;
42632;SDS011;28261;53.304;-6.284;2023-02-15T00:54:31;10.90;;;4.93;;
42632;SDS011;28261;53.304;-6.284;2023-02-15T00:56:37;11.13;;;5.72;;
42632;SDS011;28261;53.304;-6.284;2023-02-15T00:58:41;10.23;;;4.82;;
42632;SDS011;28261;53.304;-6.284;2023-02-15T01:00:46;14.88;;;6.07;;
42632;SDS011;28261;53.304;-6.284;2023-02-15T01:02:50;12.75;;;5.90;;
42632;SDS011;28261;53.304;-6.284;2023-02-15T01:04:54;9.77;;;5.35;;
42632;SDS011;28261;53.304;-6.284;2023-02-15T01:06:57;11.35;;;5.97;;
42632;SDS011;28261;53.304;-6.284;2023-02-15T01:09:01;13.43;;;5.47;;
42632;SDS011;28261;53.304;-6.284;2023-02-15T01:11:04;10.93;;;6.38;;
42632;SDS011;28261;53.304;-6.284;2023-02-15T01:13:08;16.27;;;5.97;;
42632;SDS011;28261;53.304;-6.284;2023-02-15T01:15:12;11.80;;;5.57;;
42632;SDS011;28261;53.304;-6.284;2023-02-15T01:17:17;12.15;;;6.05;;
42632;SDS011;28261;53.304;-6.284;2023-02-15T01:19:20;13.93;;;7.07;;
42632;SDS011;28261;53.304;-6.284;2023-02-15T01:21:24;13.32;;;6.18;;
42632;SDS011;28261;53.304;-6.284;2023-02-15T01:23:28;11.88;;;5.72;;
42632;SDS011;28261;53.304;-6.284;2023-02-15T01:25:32;14.77;;;7.13;;
42632;SDS011;28261;53.304;-6.284;2023-02-15T01:27:36;12.68;;;6.05;;
42632;SDS011;28261;53.304;-6.284;2023-02-15T01:29:40;16.77;;;6.85;;
42632;SDS011;28261;53.304;-6.284;2023-02-15T01:31:43;10.77;;;6.05;;
42632;SDS011;28261;53.304;-6.284;2023-02-15T01:35:56;12.95;;;7.18;;
42632;SDS011;28261;53.304;-6.284;2023-02-15T01:38:00;16.80;;;6.85;;
42632;SDS011;28261;53.304;-6.284;2023-02-15T01:40:04;12.90;;;6.20;;
42632;SDS011;28261;53.304;-6.284;2023-02-15T01:42:10;18.45;;;7.82;;
42632;SDS011;28261;53.304;-6.284;2023-02-15T01:46:50;17.92;;;7.57;;
42632;SDS011;28261;53.304;-6.284;2023-02-15T01:48:59;13.05;;;7.13;;
42632;SDS011;28261;53.304;-6.284;2023-02-15T01:51:05;13.45;;;6.75;;
42632;SDS011;28261;53.304;-6.284;2023-02-15T01:53:10;16.88;;;7.03;;
42632;SDS011;28261;53.304;-6.284;2023-02-15T01:55:18;16.70;;;5.90;;
42632;SDS011;28261;53.304;-6.284;2023-02-15T01:57:23;16.70;;;7.47;;
42632;SDS011;28261;53.304;-6.284;2023-02-15T01:59:30;13.73;;;7.07;;
42632;SDS011;28261;53.304;-6.284;2023-02-15T02:01:35;14.05;;;6.07;;
42632;SDS011;28261;53.304;-6.284;2023-02-15T02:03:42;13.20;;;6.72;;
42632;SDS011;28261;53.304;-6.284;2023-02-15T02:05:53;13.40;;;6.95;;
42632;SDS011;28261;53.304;-6.284;2023-02-15T02:07:57;12.70;;;7.35;;
42632;SDS011;28261;53.304;-6.284;2023-02-15T02:10:05;15.38;;;7.57;;
42632;SDS011;28261;53.304;-6.284;2023-02-15T02:12:12;14.57;;;7.35;;
42632;SDS011;28261;53.304;-6.284;2023-02-15T02:14:17;15.15;;;7.93;;
42632;SDS011;28261;53.304;-6.284;2023-02-15T02:16:22;15.80;;;6.47;;
42632;SDS011;28261;53.304;-6.284;2023-02-15T02:18:34;13.07;;;6.90;;
42632;SDS011;28261;53.304;-6.284;2023-02-15T02:23:32;13.25;;;7.63;;
42632;SDS011;28261;53.304;-6.284;2023-02-15T02:28:30;14.02;;;8.23;;
42632;SDS011;28261;53.304;-6.284;2023-02-15T02:31:03;18.33;;;7.60;;
42632;SDS011;28261;53.304;-6.284;2023-02-15T02:33:31;16.90;;;8.15;;
42632;SDS011;28261;53.304;-6.284;2023-02-15T02:36:05;15.80;;;7.50;;
42632;SDS011;28261;53.304;-6.284;2023-02-15T02:38:16;19.80;;;7.88;;
42632;SDS011;28261;53.304;-6.284;2023-02-15T02:40:33;19.27;;;8.73;;
42632;SDS011;28261;53.304;-6.284;2023-02-15T02:42:48;18.92;;;8.43;;
42632;SDS011;28261;53.304;-6.284;2023-02-15T02:44:57;13.70;;;6.95;;
42632;SDS011;28261;53.304;-6.284;2023-02-15T02:47:06;16.23;;;8.85;;
42632;SDS011;28261;53.304;-6.284;2023-02-15T02:49:15;17.88;;;8.40;;
42632;SDS011;28261;53.304;-6.284;2023-02-15T02:51:19;20.10;;;8.50;;
42632;SDS011;28261;53.304;-6.284;2023-02-15T02:53:23;25.17;;;10.23;;
42632;SDS011;28261;53.304;-6.284;2023-02-15T02:55:29;22.23;;;9.48;;
42632;SDS011;28261;53.304;-6.284;2023-02-15T02:57:35;20.55;;;9.05;;
42632;SDS011;28261;53.304;-6.284;2023-02-15T02:59:43;22.20;;;8.00;;
42632;SDS011;28261;53.304;-6.284;2023-02-15T03:01:49;20.20;;;8.85;;
42632;SDS011;28261;53.304;-6.284;2023-02-15T03:03:57;18.98;;;8.90;;
42632;SDS011;28261;53.304;-6.284;2023-02-15T03:06:06;20.48;;;8.57;;
42632;SDS011;28261;53.304;-6.284;2023-02-15T03:08:13;16.83;;;8.20;;
42632;SDS011;28261;53.304;-6.284;2023-02-15T03:10:26;21.48;;;8.27;;
42632;SDS011;28261;53.304;-6.284;2023-02-15T03:12:32;18.60;;;8.10;;
42632;SDS011;28261;53.304;-6.284;2023-02-15T03:14:37;14.65;;;8.20;;
42632;SDS011;28261;53.304;-6.284;2023-02-15T03:16:41;20.50;;;8.52;;
42632;SDS011;28261;53.304;-6.284;2023-02-15T03:18:48;18.05;;;8.30;;
42632;SDS011;28261;53.304;-6.284;2023-02-15T03:20:59;19.55;;;7.45;;
42632;SDS011;28261;53.304;-6.284;2023-02-15T03:23:06;15.20;;;8.30;;
42632;SDS011;28261;53.304;-6.284;2023-02-15T03:25:15;16.33;;;8.38;;
42632;SDS011;28261;53.304;-6.284;2023-02-15T03:27:22;24.88;;;8.30;;
42632;SDS011;28261;53.304;-6.284;2023-02-15T03:29:30;20.77;;;7.93;;
42632;SDS011;28261;53.304;-6.284;2023-02-15T03:31:36;17.20;;;7.20;;
42632;SDS011;28261;53.304;-6.284;2023-02-15T03:33:47;15.90;;;7.40;;
42632;SDS011;28261;53.304;-6.284;2023-02-15T03:35:56;18.02;;;7.80;;
42632;SDS011;28261;53.304;-6.284;2023-02-15T03:38:06;19.70;;;8.23;;
42632;SDS011;28261;53.304;-6.284;2023-02-15T03:40:14;14.98;;;7.07;;
42632;SDS011;28261;53.304;-6.284;2023-02-15T03:42:39;21.35;;;8.73;;
42632;SDS011;28261;53.304;-6.284;2023-02-15T03:44:47;20.55;;;8.43;;
42632;SDS011;28261;53.304;-6.284;2023-02-15T03:46:58;17.90;;;8.30;;
42632;SDS011;28261;53.304;-6.284;2023-02-15T03:49:08;18.15;;;8.73;;
42632;SDS011;28261;53.304;-6.284;2023-02-15T03:51:17;18.67;;;7.55;;
42632;SDS011;28261;53.304;-6.284;2023-02-15T03:53:39;24.85;;;9.85;;
42632;SDS011;28261;53.304;-6.284;2023-02-15T03:55:45;15.63;;;8.20;;
42632;SDS011;28261;53.304;-6.284;2023-02-15T03:57:49;17.88;;;9.18;;
42632;SDS011;28261;53.304;-6.284;2023-02-15T04:00:12;22.23;;;9.88;;
42632;SDS011;28261;53.304;-6.284;2023-02-15T04:02:36;19.13;;;8.65;;
42632;SDS011;28261;53.304;-6.284;2023-02-15T04:04:46;25.25;;;8.63;;
42632;SDS011;28261;53.304;-6.284;2023-02-15T04:06:50;18.42;;;9.65;;
42632;SDS011;28261;53.304;-6.284;2023-02-15T04:08:55;15.65;;;8.07;;
42632;SDS011;28261;53.304;-6.284;2023-02-15T04:11:16;22.17;;;8.80;;
42632;SDS011;28261;53.304;-6.284;2023-02-15T04:13:20;18.20;;;8.25;;
42632;SDS011;28261;53.304;-6.284;2023-02-15T04:15:24;17.02;;;7.78;;
42632;SDS011;28261;53.304;-6.284;2023-02-15T04:17:44;22.42;;;7.78;;
42632;SDS011;28261;53.304;-6.284;2023-02-15T04:19:48;19.35;;;7.65;;
42632;SDS011;28261;53.304;-6.284;2023-02-15T04:22:09;15.57;;;6.47;;
42632;SDS011;28261;53.304;-6.284;2023-02-15T04:24:31;17.33;;;7.40;;
42632;SDS011;28261;53.304;-6.284;2023-02-15T04:26:51;17.80;;;8.10;;
42632;SDS011;28261;53.304;-6.284;2023-02-15T04:28:55;14.13;;;7.63;;
42632;SDS011;28261;53.304;-6.284;2023-02-15T04:30:58;18.17;;;7.55;;
42632;SDS011;28261;53.304;-6.284;2023-02-15T04:33:02;17.55;;;7.40;;
42632;SDS011;28261;53.304;-6.284;2023-02-15T04:35:05;18.92;;;7.10;;
42632;SDS011;28261;53.304;-6.284;2023-02-15T04:37:09;15.05;;;7.15;;
42632;SDS011;28261;53.304;-6.284;2023-02-15T04:39:12;18.02;;;7.70;;
42632;SDS011;28261;53.304;-6.284;2023-02-15T04:41:18;16.70;;;6.88;;
42632;SDS011;28261;53.304;-6.284;2023-02-15T04:43:21;15.40;;;7.43;;
42632;SDS011;28261;53.304;-6.284;2023-02-15T04:45:24;15.23;;;5.80;;
42632;SDS011;28261;53.304;-6.284;2023-02-15T04:47:28;17.35;;;6.82;;
42632;SDS011;28261;53.304;-6.284;2023-02-15T04:49:32;10.85;;;6.15;;
42632;SDS011;28261;53.304;-6.284;2023-02-15T04:51:35;16.77;;;6.60;;
42632;SDS011;28261;53.304;-6.284;2023-02-15T04:53:38;11.98;;;6.20;;
42632;SDS011;28261;53.304;-6.284;2023-02-15T04:55:42;16.65;;;6.47;;
42632;SDS011;28261;53.304;-6.284;2023-02-15T04:57:47;14.00;;;6.22;;
42632;SDS011;28261;53.304;-6.284;2023-02-15T04:59:50;13.88;;;5.63;;
42632;SDS011;28261;53.304;-6.284;2023-02-15T05:01:53;15.98;;;6.57;;
42632;SDS011;28261;53.304;-6.284;2023-02-15T05:03:57;9.45;;;4.55;;
42632;SDS011;28261;53.304;-6.284;2023-02-15T05:06:00;13.95;;;6.40;;
42632;SDS011;28261;53.304;-6.284;2023-02-15T05:08:04;13.18;;;5.88;;
42632;SDS011;28261;53.304;-6.284;2023-02-15T05:10:07;12.95;;;5.43;;
42632;SDS011;28261;53.304;-6.284;2023-02-15T05:12:11;10.90;;;5.93;;
42632;SDS011;28261;53.304;-6.284;2023-02-15T05:14:16;14.45;;;6.50;;
42632;SDS011;28261;53.304;-6.284;2023-02-15T05:16:19;4.53;;;2.53;;
42632;SDS011;28261;53.304;-6.284;2023-02-15T05:18:23;4.65;;;2.30;;
42632;SDS011;28261;53.304;-6.284;2023-02-15T05:20:26;5.47;;;1.98;;
42632;SDS011;28261;53.304;-6.284;2023-02-15T05:22:30;6.63;;;1.83;;
42632;SDS011;28261;53.304;-6.284;2023-02-15T05:24:33;2.10;;;1.48;;
42632;SDS011;28261;53.304;-6.284;2023-02-15T05:26:54;2.92;;;1.05;;
42632;SDS011;28261;53.304;-6.284;2023-02-15T05:29:22;1.10;;;0.52;;
42632;SDS011;28261;53.304;-6.284;2023-02-15T05:31:25;0.90;;;0.80;;
42632;SDS011;28261;53.304;-6.284;2023-02-15T05:33:29;2.17;;;1.00;;
42632;SDS011;28261;53.304;-6.284;2023-02-15T05:35:32;1.08;;;0.98;;
42632;SDS011;28261;53.304;-6.284;2023-02-15T05:37:36;1.35;;;0.93;;
42632;SDS011;28261;53.304;-6.284;2023-02-15T05:39:40;2.97;;;1.05;;
42632;SDS011;28261;53.304;-6.284;2023-02-15T05:41:43;1.50;;;1.02;;
42632;SDS011;28261;53.304;-6.284;2023-02-15T05:43:47;2.70;;;0.77;;
42632;SDS011;28261;53.304;-6.284;2023-02-15T05:45:52;0.80;;;0.80;;
42632;SDS011;28261;53.304;-6.284;2023-02-15T05:47:57;2.22;;;0.70;;
42632;SDS011;28261;53.304;-6.284;2023-02-15T05:50:00;0.82;;;0.63;;
42632;SDS011;28261;53.304;-6.284;2023-02-15T05:52:04;1.38;;;0.70;;
42632;SDS011;28261;53.304;-6.284;2023-02-15T05:54:07;1.20;;;0.80;;
42632;SDS011;28261;53.304;-6.284;2023-02-15T05:56:11;2.47;;;0.88;;
42632;SDS011;28261;53.304;-6.284;2023-02-15T05:58:14;0.73;;;0.68;;
42632;SDS011;28261;53.304;-6.284;2023-02-15T06:00:18;0.90;;;0.90;;
42632;SDS011;28261;53.304;-6.284;2023-02-15T06:02:23;1.10;;;0.82;;
42632;SDS011;28261;53.304;-6.284;2023-02-15T06:04:26;1.50;;;1.40;;
42632;SDS011;28261;53.304;-6.284;2023-02-15T06:06:30;1.65;;;1.13;;
42632;SDS011;28261;53.304;-6.284;2023-02-15T06:08:33;1.42;;;0.73;;
42632;SDS011;28261;53.304;-6.284;2023-02-15T06:10:37;4.10;;;0.98;;
42632;SDS011;28261;53.304;-6.284;2023-02-15T06:12:41;1.42;;;0.75;;
42632;SDS011;28261;53.304;-6.284;2023-02-15T06:14:46;0.73;;;0.73;;
42632;SDS011;28261;53.304;-6.284;2023-02-15T06:16:49;1.30;;;0.73;;
42632;SDS011;28261;53.304;-6.284;2023-02-15T06:18:54;1.38;;;0.75;;
42632;SDS011;28261;53.304;-6.284;2023-02-15T06:20:57;0.80;;;0.80;;
42632;SDS011;28261;53.304;-6.284;2023-02-15T06:23:01;1.02;;;0.80;;
42632;SDS011;28261;53.304;-6.284;2023-02-15T06:25:05;2.80;;;1.20;;
42632;SDS011;28261;53.304;-6.284;2023-02-15T06:27:11;1.00;;;0.90;;
42632;SDS011;28261;53.304;-6.284;2023-02-15T06:29:14;0.98;;;0.90;;
42632;SDS011;28261;53.304;-6.284;2023-02-15T06:31:18;1.00;;;0.88;;
42632;SDS011;28261;53.304;-6.284;2023-02-15T06:33:22;1.02;;;0.90;;
42632;SDS011;28261;53.304;-6.284;2023-02-15T06:35:26;1.92;;;0.93;;
42632;SDS011;28261;53.304;-6.284;2023-02-15T06:37:30;1.50;;;0.70;;
42632;SDS011;28261;53.304;-6.284;2023-02-15T06:39:33;0.82;;;0.82;;
42632;SDS011;28261;53.304;-6.284;2023-02-15T06:41:40;0.82;;;0.82;;
42632;SDS011;28261;53.304;-6.284;2023-02-15T06:43:43;2.15;;;0.73;;
42632;SDS011;28261;53.304;-6.284;2023-02-15T06:45:46;1.85;;;0.70;;
42632;SDS011;28261;53.304;-6.284;2023-02-15T06:47:49;0.82;;;0.82;;
42632;SDS011;28261;53.304;-6.284;2023-02-15T06:49:53;0.77;;;0.77;;
42632;SDS011;28261;53.304;-6.284;2023-02-15T06:51:57;1.02;;;0.75;;
42632;SDS011;28261;53.304;-6.284;2023-02-15T06:56:05;0.63;;;0.63;;
42632;SDS011;28261;53.304;-6.284;2023-02-15T06:58:10;0.85;;;0.85;;
42632;SDS011;28261;53.304;-6.284;2023-02-15T07:00:14;1.38;;;1.25;;
42632;SDS011;28261;53.304;-6.284;2023-02-15T07:04:22;1.40;;;1.30;;
42632;SDS011;28261;53.304;-6.284;2023-02-15T07:06:26;0.70;;;0.70;;
42632;SDS011;28261;53.304;-6.284;2023-02-15T07:08:30;0.52;;;0.52;;
42632;SDS011;28261;53.304;-6.284;2023-02-15T07:10:34;0.63;;;0.60;;
42632;SDS011;28261;53.304;-6.284;2023-02-15T07:12:37;0.98;;;0.75;;
42632;SDS011;28261;53.304;-6.284;2023-02-15T07:14:46;1.10;;;0.77;;
42632;SDS011;28261;53.304;-6.284;2023-02-15T07:16:49;1.75;;;0.80;;
42632;SDS011;28261;53.304;-6.284;2023-02-15T07:18:53;0.73;;;0.50;;
42632;SDS011;28261;53.304;-6.284;2023-02-15T07:20:56;1.00;;;1.00;;
42632;SDS011;28261;53.304;-6.284;2023-02-15T07:22:59;0.90;;;0.65;;
42632;SDS011;28261;53.304;-6.284;2023-02-15T07:25:05;0.50;;;0.50;;
42632;SDS011;28261;53.304;-6.284;2023-02-15T07:27:10;1.23;;;0.68;;
42632;SDS011;28261;53.304;-6.284;2023-02-15T07:29:14;0.70;;;0.70;;
42632;SDS011;28261;53.304;-6.284;2023-02-15T07:31:17;1.35;;;0.70;;
42632;SDS011;28261;53.304;-6.284;2023-02-15T07:33:21;0.98;;;0.80;;
42632;SDS011;28261;53.304;-6.284;2023-02-15T07:35:28;0.45;;;0.40;;
42632;SDS011;28261;53.304;-6.284;2023-02-15T07:37:31;0.77;;;0.60;;
42632;SDS011;28261;53.304;-6.284;2023-02-15T07:39:35;1.10;;;1.10;;
42632;SDS011;28261;53.304;-6.284;2023-02-15T07:41:39;0.63;;;0.43;;
42632;SDS011;28261;53.304;-6.284;2023-02-15T07:43:45;2.15;;;0.68;;
42632;SDS011;28261;53.304;-6.284;2023-02-15T07:45:49;0.77;;;0.60;;
42632;SDS011;28261;53.304;-6.284;2023-02-15T07:47:52;0.75;;;0.68;;
42632;SDS011;28261;53.304;-6.284;2023-02-15T07:49:55;0.70;;;0.60;;
42632;SDS011;28261;53.304;-6.284;2023-02-15T07:52:00;0.52;;;0.20;;
42632;SDS011;28261;53.304;-6.284;2023-02-15T07:54:03;0.63;;;0.60;;
42632;SDS011;28261;53.304;-6.284;2023-02-15T07:56:07;1.17;;;0.93;;
42632;SDS011;28261;53.304;-6.284;2023-02-15T07:58:14;0.73;;;0.52;;
42632;SDS011;28261;53.304;-6.284;2023-02-15T08:00:18;0.70;;;0.70;;
42632;SDS011;28261;53.304;-6.284;2023-02-15T08:02:25;0.80;;;0.80;;
42632;SDS011;28261;53.304;-6.284;2023-02-15T08:04:28;0.70;;;0.50;;
42632;SDS011;28261;53.304;-6.284;2023-02-15T08:06:33;0.90;;;0.90;;
42632;SDS011;28261;53.304;-6.284;2023-02-15T08:08:37;1.15;;;0.70;;
42632;SDS011;28261;53.304;-6.284;2023-02-15T08:10:41;0.10;;;0.10;;
42632;SDS011;28261;53.304;-6.284;2023-02-15T08:13:02;0.17;;;0.17;;
42632;SDS011;28261;53.304;-6.284;2023-02-15T08:15:07;0.40;;;0.40;;
42632;SDS011;28261;53.304;-6.284;2023-02-15T08:17:10;1.40;;;0.65;;
42632;SDS011;28261;53.304;-6.284;2023-02-15T08:19:14;1.40;;;0.80;;
42632;SDS011;28261;53.304;-6.284;2023-02-15T08:21:20;0.73;;;0.73;;
42632;SDS011;28261;53.304;-6.284;2023-02-15T08:23:25;0.85;;;0.60;;
42632;SDS011;28261;53.304;-6.284;2023-02-15T08:25:28;0.93;;;0.93;;
42632;SDS011;28261;53.304;-6.284;2023-02-15T08:27:32;0.88;;;0.52;;
42632;SDS011;28261;53.304;-6.284;2023-02-15T08:29:36;1.20;;;0.50;;
42632;SDS011;28261;53.304;-6.284;2023-02-15T08:31:42;1.85;;;0.80;;
42632;SDS011;28261;53.304;-6.284;2023-02-15T08:33:46;2.15;;;0.73;;
42632;SDS011;28261;53.304;-6.284;2023-02-15T08:35:51;2.08;;;0.30;;
42632;SDS011;28261;53.304;-6.284;2023-02-15T08:37:54;2.00;;;0.70;;
42632;SDS011;28261;53.304;-6.284;2023-02-15T08:39:58;2.92;;;0.70;;
42632;SDS011;28261;53.304;-6.284;2023-02-15T08:42:01;0.93;;;0.73;;
42632;SDS011;28261;53.304;-6.284;2023-02-15T08:44:05;0.60;;;0.55;;
42632;SDS011;28261;53.304;-6.284;2023-02-15T08:46:11;1.25;;;0.60;;
42632;SDS011;28261;53.304;-6.284;2023-02-15T08:48:16;0.60;;;0.60;;
42632;SDS011;28261;53.304;-6.284;2023-02-15T08:50:19;0.65;;;0.65;;
42632;SDS011;28261;53.304;-6.284;2023-02-15T08:52:23;2.30;;;0.95;;
42632;SDS011;28261;53.304;-6.284;2023-02-15T08:54:26;1.25;;;1.25;;
42632;SDS011;28261;53.304;-6.284;2023-02-15T08:56:31;1.67;;;0.70;;
42632;SDS011;28261;53.304;-6.284;2023-02-15T08:58:36;0.63;;;0.60;;
42632;SDS011;28261;53.304;-6.284;2023-02-15T09:00:40;2.83;;;0.77;;
42632;SDS011;28261;53.304;-6.284;2023-02-15T09:02:47;1.10;;;0.52;;
42632;SDS011;28261;53.304;-6.284;2023-02-15T09:04:53;2.97;;;1.08;;
42632;SDS011;28261;53.304;-6.284;2023-02-15T09:09:00;0.52;;;0.52;;
42632;SDS011;28261;53.304;-6.284;2023-02-15T09:11:06;1.50;;;0.93;;
42632;SDS011;28261;53.304;-6.284;2023-02-15T09:13:11;0.95;;;0.70;;
42632;SDS011;28261;53.304;-6.284;2023-02-15T09:15:14;1.50;;;0.60;;
42632;SDS011;28261;53.304;-6.284;2023-02-15T09:17:18;1.27;;;0.30;;
42632;SDS011;28261;53.304;-6.284;2023-02-15T09:19:21;0.68;;;0.68;;
42632;SDS011;28261;53.304;-6.284;2023-02-15T09:21:27;1.05;;;1.05;;
42632;SDS011;28261;53.304;-6.284;2023-02-15T09:23:31;0.82;;;0.82;;
42632;SDS011;28261;53.304;-6.284;2023-02-15T09:25:34;0.95;;;0.70;;
42632;SDS011;28261;53.304;-6.284;2023-02-15T09:27:37;0.75;;;0.73;;
42632;SDS011;28261;53.304;-6.284;2023-02-15T09:29:41;1.55;;;0.20;;
42632;SDS011;28261;53.304;-6.284;2023-02-15T09:31:45;0.90;;;0.70;;
42632;SDS011;28261;53.304;-6.284;2023-02-15T09:33:50;0.63;;;0.63;;
42632;SDS011;28261;53.304;-6.284;2023-02-15T09:35:54;0.60;;;0.60;;
42632;SDS011;28261;53.304;-6.284;2023-02-15T09:38:00;0.80;;;0.80;;
42632;SDS011;28261;53.304;-6.284;2023-02-15T09:40:03;0.55;;;0.52;;
42632;SDS011;28261;53.304;-6.284;2023-02-15T09:42:20;0.52;;;0.52;;
42632;SDS011;28261;53.304;-6.284;2023-02-15T09:44:46;2.55;;;0.80;;
42632;SDS011;28261;53.304;-6.284;2023-02-15T09:47:13;1.48;;;0.73;;
42632;SDS011;28261;53.304;-6.284;2023-02-15T09:49:32;0.65;;;0.65;;
42632;SDS011;28261;53.304;-6.284;2023-02-15T09:54:41;3.60;;;0.70;;
42632;SDS011;28261;53.304;-6.284;2023-02-15T09:56:55;1.65;;;0.90;;
42632;SDS011;28261;53.304;-6.284;2023-02-15T09:59:05;1.45;;;1.35;;
42632;SDS011;28261;53.304;-6.284;2023-02-15T10:01:18;0.98;;;0.80;;
42632;SDS011;28261;53.304;-6.284;2023-02-15T10:03:39;0.77;;;0.77;;
42632;SDS011;28261;53.304;-6.284;2023-02-15T10:06:02;0.40;;;0.40;;
42632;SDS011;28261;53.304;-6.284;2023-02-15T10:10:57;1.20;;;1.00;;
42632;SDS011;28261;53.304;-6.284;2023-02-15T10:13:26;2.05;;;0.68;;
42632;SDS011;28261;53.304;-6.284;2023-02-15T10:18:05;1.10;;;0.52;;
42632;SDS011;28261;53.304;-6.284;2023-02-15T10:20:24;0.73;;;0.73;;
42632;SDS011;28261;53.304;-6.284;2023-02-15T10:22:38;4.32;;;0.73;;
42632;SDS011;28261;53.304;-6.284;2023-02-15T10:27:25;1.02;;;0.52;;
42632;SDS011;28261;53.304;-6.284;2023-02-15T10:29:33;1.45;;;0.68;;
42632;SDS011;28261;53.304;-6.284;2023-02-15T10:31:40;3.50;;;0.60;;
42632;SDS011;28261;53.304;-6.284;2023-02-15T10:33:53;1.50;;;0.93;;
42632;SDS011;28261;53.304;-6.284;2023-02-15T10:36:09;0.45;;;0.40;;
42632;SDS011;28261;53.304;-6.284;2023-02-15T10:38:23;2.40;;;0.60;;
42632;SDS011;28261;53.304;-6.284;2023-02-15T10:40:36;0.70;;;0.60;;
42632;SDS011;28261;53.304;-6.284;2023-02-15T10:42:54;1.63;;;0.57;;
42632;SDS011;28261;53.304;-6.284;2023-02-15T10:45:16;1.52;;;0.60;;
42632;SDS011;28261;53.304;-6.284;2023-02-15T10:47:30;1.40;;;1.30;;
42632;SDS011;28261;53.304;-6.284;2023-02-15T10:49:54;3.45;;;1.00;;
42632;SDS011;28261;53.304;-6.284;2023-02-15T10:52:13;2.45;;;0.70;;
42632;SDS011;28261;53.304;-6.284;2023-02-15T10:54:31;1.63;;;0.85;;
42632;SDS011;28261;53.304;-6.284;2023-02-15T10:56:42;1.73;;;0.60;;
42632;SDS011;28261;53.304;-6.284;2023-02-15T10:59:06;2.45;;;1.05;;
42632;SDS011;28261;53.304;-6.284;2023-02-15T11:01:30;5.05;;;0.77;;
42632;SDS011;28261;53.304;-6.284;2023-02-15T11:03:48;3.05;;;0.60;;
42632;SDS011;28261;53.304;-6.284;2023-02-15T11:06:11;3.95;;;0.90;;
42632;SDS011;28261;53.304;-6.284;2023-02-15T11:08:16;0.70;;;0.35;;
42632;SDS011;28261;53.304;-6.284;2023-02-15T11:10:26;3.22;;;1.10;;
42632;SDS011;28261;53.304;-6.284;2023-02-15T11:12:32;1.27;;;0.57;;
42632;SDS011;28261;53.304;-6.284;2023-02-15T11:14:39;10.60;;;1.40;;
42632;SDS011;28261;53.304;-6.284;2023-02-15T11:16:48;6.32;;;1.05;;
42632;SDS011;28261;53.304;-6.284;2023-02-15T11:18:55;1.75;;;0.63;;
42632;SDS011;28261;53.304;-6.284;2023-02-15T11:21:02;1.40;;;0.80;;
42632;SDS011;28261;53.304;-6.284;2023-02-15T11:23:12;1.38;;;0.63;;
42632;SDS011;28261;53.304;-6.284;2023-02-15T11:25:18;5.25;;;1.33;;
42632;SDS011;28261;53.304;-6.284;2023-02-15T11:27:25;1.50;;;0.80;;
42632;SDS011;28261;53.304;-6.284;2023-02-15T11:29:33;3.47;;;1.27;;
42632;SDS011;28261;53.304;-6.284;2023-02-15T11:31:43;4.30;;;1.20;;
42632;SDS011;28261;53.304;-6.284;2023-02-15T11:33:49;2.15;;;0.98;;
42632;SDS011;28261;53.304;-6.284;2023-02-15T11:35:57;4.82;;;1.27;;
42632;SDS011;28261;53.304;-6.284;2023-02-15T11:38:05;2.75;;;0.98;;
42632;SDS011;28261;53.304;-6.284;2023-02-15T11:40:17;2.70;;;1.25;;
42632;SDS011;28261;53.304;-6.284;2023-02-15T11:42:23;2.15;;;1.10;;
42632;SDS011;28261;53.304;-6.284;2023-02-15T11:44:31;2.88;;;0.68;;
42632;SDS011;28261;53.304;-6.284;2023-02-15T11:46:38;1.58;;;0.95;;
42632;SDS011;28261;53.304;-6.284;2023-02-15T11:48:42;4.93;;;0.98;;
42632;SDS011;28261;53.304;-6.284;2023-02-15T11:50:46;1.90;;;1.02;;
42632;SDS011;28261;53.304;-6.284;2023-02-15T11:52:49;1.25;;;0.90;;
42632;SDS011;28261;53.304;-6.284;2023-02-15T11:54:53;2.70;;;0.93;;
42632;SDS011;28261;53.304;-6.284;2023-02-15T11:56:58;3.70;;;1.30;;
42632;SDS011;28261;53.304;-6.284;2023-02-15T11:59:06;5.88;;;1.20;;
42632;SDS011;28261;53.304;-6.284;2023-02-15T12:01:16;2.65;;;1.52;;
42632;SDS011;28261;53.304;-6.284;2023-02-15T12:03:26;7.22;;;1.48;;
42632;SDS011;28261;53.304;-6.284;2023-02-15T12:05:39;3.90;;;1.05;;
42632;SDS011;28261;53.304;-6.284;2023-02-15T12:07:46;2.95;;;1.02;;
42632;SDS011;28261;53.304;-6.284;2023-02-15T12:09:55;2.53;;;1.17;;
42632;SDS011;28261;53.304;-6.284;2023-02-15T12:12:21;1.83;;;1.05;;
42632;SDS011;28261;53.304;-6.284;2023-02-15T12:14:27;4.32;;;1.30;;
42632;SDS011;28261;53.304;-6.284;2023-02-15T12:16:50;2.65;;;0.70;;
42632;SDS011;28261;53.304;-6.284;2023-02-15T12:18:56;3.25;;;1.02;;
42632;SDS011;28261;53.304;-6.284;2023-02-15T12:21:03;2.40;;;1.00;;
42632;SDS011;28261;53.304;-6.284;2023-02-15T12:23:11;2.42;;;1.10;;
42632;SDS011;28261;53.304;-6.284;2023-02-15T12:25:20;6.05;;;1.63;;
42632;SDS011;28261;53.304;-6.284;2023-02-15T12:27:26;5.97;;;1.23;;
42632;SDS011;28261;53.304;-6.284;2023-02-15T12:29:34;4.57;;;1.08;;
42632;SDS011;28261;53.304;-6.284;2023-02-15T12:31:44;1.90;;;0.93;;
42632;SDS011;28261;53.304;-6.284;2023-02-15T12:33:50;2.42;;;0.98;;
42632;SDS011;28261;53.304;-6.284;2023-02-15T12:35:57;3.90;;;0.95;;
42632;SDS011;28261;53.304;-6.284;2023-02-15T12:38:19;8.52;;;1.42;;
42632;SDS011;28261;53.304;-6.284;2023-02-15T12:40:26;4.60;;;1.02;;
42632;SDS011;28261;53.304;-6.284;2023-02-15T12:42:40;3.47;;;1.10;;
42632;SDS011;28261;53.304;-6.284;2023-02-15T12:44:53;7.47;;;1.25;;
42632;SDS011;28261;53.304;-6.284;2023-02-15T12:47:03;4.03;;;1.20;;
42632;SDS011;28261;53.304;-6.284;2023-02-15T12:49:19;6.10;;;1.52;;
42632;SDS011;28261;53.304;-6.284;2023-02-15T12:51:22;4.88;;;1.00;;
42632;SDS011;28261;53.304;-6.284;2023-02-15T12:53:31;7.20;;;1.10;;
42632;SDS011;28261;53.304;-6.284;2023-02-15T12:55:37;4.55;;;1.00;;
42632;SDS011;28261;53.304;-6.284;2023-02-15T12:57:46;5.55;;;1.17;;